createdAt,value
2019-04-05T00:00:45.729Z,998.14
2019-04-05T00:01:45.750Z,998.17
2019-04-05T00:02:45.704Z,998.16
2019-04-05T00:03:45.743Z,998.18
2019-04-05T00:04:45.690Z,998.14
2019-04-05T00:05:45.674Z,998.23
2019-04-05T00:06:45.672Z,998.19
2019-04-05T00:07:45.655Z,998.22
2019-04-05T00:08:45.662Z,998.26
2019-04-05T00:09:45.649Z,998.18
2019-04-05T00:10:45.616Z,998.22
2019-04-05T00:11:45.632Z,998.18
2019-04-05T00:12:45.605Z,998.26
2019-04-05T00:13:45.639Z,998.31
2019-04-05T00:14:45.583Z,998.28
2019-04-05T00:15:45.569Z,998.25
2019-04-05T00:16:45.617Z,998.25
2019-04-05T00:17:45.546Z,998.24
2019-04-05T00:18:45.555Z,998.22
2019-04-05T00:19:45.520Z,998.24
2019-04-05T00:20:45.560Z,998.19
2019-04-05T00:21:45.545Z,998.21
2019-04-05T00:22:45.488Z,998.18
2019-04-05T00:23:45.481Z,998.25
2019-04-05T00:24:45.611Z,998.24
2019-04-05T00:25:45.464Z,998.24
2019-04-05T00:26:45.457Z,998.19
2019-04-05T00:27:45.525Z,998.21
2019-04-05T00:28:45.424Z,998.19
2019-04-05T00:29:45.439Z,998.17
2019-04-05T00:30:45.417Z,998.17
2019-04-05T00:31:45.391Z,998.14
2019-04-05T00:32:45.392Z,998.15
2019-04-05T00:33:45.371Z,998.14
2019-04-05T00:34:45.409Z,998.17
2019-04-05T00:35:45.348Z,998.08
2019-04-05T00:36:45.339Z,998.12
2019-04-05T00:37:45.328Z,998.14
2019-04-05T00:38:45.349Z,998.13
2019-04-05T00:39:45.301Z,998.20
2019-04-05T00:40:45.311Z,998.19
2019-04-05T00:41:45.285Z,998.21
2019-04-05T00:42:45.271Z,998.19
2019-04-05T00:43:45.292Z,998.16
2019-04-05T00:44:45.269Z,998.21
2019-04-05T00:45:45.290Z,998.19
2019-04-05T00:46:45.238Z,998.23
2019-04-05T00:47:45.223Z,998.29
2019-04-05T00:48:45.229Z,998.31
2019-04-05T00:49:45.202Z,998.36
2019-04-05T00:50:45.225Z,998.34
2019-04-05T00:51:45.179Z,998.28
2019-04-05T00:52:45.163Z,998.32
2019-04-05T00:53:45.167Z,998.28
2019-04-05T00:54:45.144Z,998.27
2019-04-05T00:55:45.166Z,998.32
2019-04-05T00:56:45.127Z,998.32
2019-04-05T00:57:45.134Z,998.33
2019-04-05T00:58:45.227Z,998.38
2019-04-05T00:59:45.098Z,998.36
2019-04-05T01:00:45.088Z,998.36
2019-04-05T01:01:45.088Z,998.36
2019-04-05T01:02:45.061Z,998.36
2019-04-05T01:03:45.056Z,998.40
2019-04-05T01:04:45.039Z,998.34
2019-04-05T01:05:45.067Z,998.40
2019-04-05T01:06:45.031Z,998.37
2019-04-05T01:07:45.017Z,998.40
2019-04-05T01:08:44.992Z,998.40
2019-04-05T01:09:44.987Z,998.36
2019-04-05T01:10:44.967Z,998.38
2019-04-05T01:11:44.983Z,998.37
2019-04-05T01:12:44.963Z,998.43
2019-04-05T01:13:44.939Z,998.46
2019-04-05T01:14:44.936Z,998.47
2019-04-05T01:15:44.923Z,998.48
2019-04-05T01:16:44.924Z,998.48
2019-04-05T01:17:44.894Z,998.50
2019-04-05T01:18:44.912Z,998.54
2019-04-05T01:19:44.876Z,998.55
2019-04-05T01:20:44.870Z,998.54
2019-04-05T01:21:44.881Z,998.59
2019-04-05T01:22:44.883Z,998.55
2019-04-05T01:23:44.833Z,998.60
2019-04-05T01:24:44.831Z,998.57
2019-04-05T01:25:44.830Z,998.56
2019-04-05T01:26:44.808Z,998.56
2019-04-05T01:27:44.817Z,998.53
2019-04-05T01:28:44.777Z,998.53
2019-04-05T01:29:44.769Z,998.49
2019-04-05T01:30:44.767Z,998.51
2019-04-05T01:31:44.748Z,998.56
2019-04-05T01:32:44.745Z,998.54
2019-04-05T01:33:44.723Z,998.54
2019-04-05T01:34:44.714Z,998.55
2019-04-05T01:35:45.637Z,998.60
2019-04-05T01:36:44.689Z,998.59
2019-04-05T01:37:44.697Z,998.60
2019-04-05T01:38:44.687Z,998.60
2019-04-05T01:39:44.688Z,998.64
2019-04-05T01:40:44.654Z,998.63
2019-04-05T01:41:44.640Z,998.65
2019-04-05T01:42:44.651Z,998.67
2019-04-05T01:43:44.625Z,998.66
2019-04-05T01:44:44.611Z,998.68
2019-04-05T01:45:53.481Z,998.69
2019-04-05T01:46:45.593Z,998.67
2019-04-05T01:47:44.603Z,998.67
2019-04-05T01:48:44.560Z,998.70
2019-04-05T01:49:44.556Z,998.67
2019-04-05T01:50:44.538Z,998.66
2019-04-05T01:51:44.534Z,998.64
2019-04-05T01:52:44.518Z,998.70
2019-04-05T01:53:44.550Z,998.70
2019-04-05T01:54:44.505Z,998.71
2019-04-05T01:55:44.498Z,998.76
2019-04-05T01:56:44.474Z,998.73
2019-04-05T01:57:44.467Z,998.77
2019-04-05T01:58:44.474Z,998.76
2019-04-05T01:59:44.451Z,998.76
2019-04-05T02:00:44.431Z,998.73
2019-04-05T02:01:44.419Z,998.73
2019-04-05T02:02:44.409Z,998.75
2019-04-05T02:03:44.430Z,998.72
2019-04-05T02:04:44.393Z,998.72
2019-04-05T02:05:44.377Z,998.78
2019-04-05T02:06:44.369Z,998.73
2019-04-05T02:07:44.427Z,998.78
2019-04-05T02:08:44.367Z,998.80
2019-04-05T02:09:44.334Z,998.84
2019-04-05T02:10:44.321Z,998.85
2019-04-05T02:11:44.317Z,998.77
2019-04-05T02:12:44.299Z,998.83
2019-04-05T02:13:44.303Z,998.78
2019-04-05T02:14:44.287Z,998.80
2019-04-05T02:15:44.278Z,998.86
2019-04-05T02:16:44.259Z,998.84
2019-04-05T02:17:44.252Z,998.82
2019-04-05T02:18:44.265Z,998.83
2019-04-05T02:19:44.235Z,998.85
2019-04-05T02:20:44.223Z,998.80
2019-04-05T02:21:44.207Z,998.82
2019-04-05T02:22:44.269Z,998.86
2019-04-05T02:23:44.220Z,998.79
2019-04-05T02:24:44.175Z,998.78
2019-04-05T02:25:44.165Z,998.75
2019-04-05T02:26:44.151Z,998.77
2019-04-05T02:27:44.170Z,998.76
2019-04-05T02:28:44.169Z,998.76
2019-04-05T02:29:44.119Z,998.77
2019-04-05T02:30:44.111Z,998.73
2019-04-05T02:31:44.117Z,998.78
2019-04-05T02:32:44.092Z,998.77
2019-04-05T02:33:44.669Z,998.75
2019-04-05T02:34:44.095Z,998.75
2019-04-05T02:35:44.053Z,998.76
2019-04-05T02:36:44.044Z,998.82
2019-04-05T02:37:44.039Z,998.79
2019-04-05T02:38:44.023Z,998.79
2019-04-05T02:39:44.031Z,998.80
2019-04-05T02:40:44.002Z,998.77
2019-04-05T02:41:43.993Z,998.82
2019-04-05T02:42:44.068Z,998.81
2019-04-05T02:43:43.984Z,998.81
2019-04-05T02:44:44.092Z,998.79
2019-04-05T02:45:43.990Z,998.77
2019-04-05T02:46:43.944Z,998.80
2019-04-05T02:47:43.925Z,998.85
2019-04-05T02:48:43.925Z,998.85
2019-04-05T02:49:43.917Z,998.85
2019-04-05T02:50:43.900Z,998.84
2019-04-05T02:51:43.906Z,998.83
2019-04-05T02:52:43.876Z,998.86
2019-04-05T02:53:43.860Z,998.87
2019-04-05T02:54:43.904Z,998.82
2019-04-05T02:55:43.842Z,998.87
2019-04-05T02:56:43.839Z,998.84
2019-04-05T02:57:43.834Z,998.83
2019-04-05T02:58:43.825Z,998.85
2019-04-05T02:59:43.829Z,998.84
2019-04-05T03:00:43.796Z,998.84
2019-04-05T03:01:43.775Z,998.88
2019-04-05T03:02:43.790Z,998.85
2019-04-05T03:03:43.769Z,998.84
2019-04-05T03:04:43.779Z,998.86
2019-04-05T03:05:43.733Z,998.86
2019-04-05T03:06:43.727Z,998.93
2019-04-05T03:07:43.727Z,998.87
2019-04-05T03:08:43.729Z,998.92
2019-04-05T03:09:43.718Z,999.00
2019-04-05T03:10:43.683Z,998.92
2019-04-05T03:11:43.670Z,998.93
2019-04-05T03:12:43.667Z,998.93
2019-04-05T03:13:43.659Z,998.98
2019-04-05T03:14:43.672Z,998.96
2019-04-05T03:15:43.631Z,998.95
2019-04-05T03:16:43.623Z,998.97
2019-04-05T03:17:43.611Z,998.98
2019-04-05T03:18:43.616Z,998.96
2019-04-05T03:19:43.644Z,999.03
2019-04-05T03:20:43.590Z,998.99
2019-04-05T03:21:43.571Z,998.98
2019-04-05T03:22:43.554Z,999.03
2019-04-05T03:23:43.540Z,999.01
2019-04-05T03:24:43.538Z,999.02
2019-04-05T03:25:43.536Z,998.98
2019-04-05T03:26:43.521Z,998.98
2019-04-05T03:27:43.502Z,998.98
2019-04-05T03:28:43.491Z,998.97
2019-04-05T03:29:43.476Z,998.99
2019-04-05T03:30:43.511Z,999.01
2019-04-05T03:31:43.460Z,999.05
2019-04-05T03:32:43.459Z,999.06
2019-04-05T03:33:43.448Z,999.06
2019-04-05T03:34:43.425Z,999.15
2019-04-05T03:35:43.442Z,999.10
2019-04-05T03:36:43.432Z,999.12
2019-04-05T03:37:43.405Z,999.13
2019-04-05T03:38:43.397Z,999.11
2019-04-05T03:39:43.370Z,999.12
2019-04-05T03:40:43.385Z,999.17
2019-04-05T03:41:43.358Z,999.13
2019-04-05T03:42:43.355Z,999.17
2019-04-05T03:43:43.343Z,999.16
2019-04-05T03:44:43.312Z,999.12
2019-04-05T03:45:43.353Z,999.18
2019-04-05T03:46:56.344Z,999.20
2019-04-05T03:47:44.293Z,999.21
2019-04-05T03:48:43.276Z,999.29
2019-04-05T03:49:43.275Z,999.28
2019-04-05T03:50:45.265Z,999.30
2019-04-05T03:51:43.238Z,999.25
2019-04-05T03:52:43.233Z,999.29
2019-04-05T03:53:43.238Z,999.31
2019-04-05T03:54:43.217Z,999.31
2019-04-05T03:55:43.228Z,999.29
2019-04-05T03:56:43.187Z,999.32
2019-04-05T03:57:43.178Z,999.33
2019-04-05T03:58:43.164Z,999.30
2019-04-05T03:59:43.267Z,999.31
2019-04-05T04:00:43.175Z,999.34
2019-04-05T04:01:43.151Z,999.40
2019-04-05T04:02:43.120Z,999.38
2019-04-05T04:03:43.151Z,999.37
2019-04-05T04:04:43.103Z,999.35
2019-04-05T04:05:43.118Z,999.35
2019-04-05T04:06:43.089Z,999.36
2019-04-05T04:07:43.064Z,999.39
2019-04-05T04:08:43.062Z,999.39
2019-04-05T04:09:43.075Z,999.41
2019-04-05T04:10:43.058Z,999.36
2019-04-05T04:11:43.056Z,999.35
2019-04-05T04:12:43.029Z,999.43
2019-04-05T04:13:43.017Z,999.42
2019-04-05T04:14:43.000Z,999.42
2019-04-05T04:15:42.983Z,999.45
2019-04-05T04:16:43.000Z,999.46
2019-04-05T04:17:42.966Z,999.40
2019-04-05T04:18:42.977Z,999.46
2019-04-05T04:19:42.945Z,999.42
2019-04-05T04:20:42.935Z,999.41
2019-04-05T04:21:42.947Z,999.46
2019-04-05T04:22:42.906Z,999.42
2019-04-05T04:23:42.906Z,999.49
2019-04-05T04:24:42.908Z,999.50
2019-04-05T04:25:42.875Z,999.52
2019-04-05T04:26:42.880Z,999.48
2019-04-05T04:27:42.857Z,999.48
2019-04-05T04:28:42.842Z,999.53
2019-04-05T04:29:42.841Z,999.59
2019-04-05T04:30:42.819Z,999.58
2019-04-05T04:31:42.826Z,999.63
2019-04-05T04:32:42.852Z,999.64
2019-04-05T04:33:42.801Z,999.68
2019-04-05T04:34:42.779Z,999.69
2019-04-05T04:35:42.784Z,999.66
2019-04-05T04:36:42.786Z,999.70
2019-04-05T04:37:42.748Z,999.75
2019-04-05T04:38:42.737Z,999.76
2019-04-05T04:39:42.734Z,999.74
2019-04-05T04:40:42.716Z,999.75
2019-04-05T04:41:42.728Z,999.83
2019-04-05T04:42:42.688Z,999.79
2019-04-05T04:43:42.676Z,999.80
2019-04-05T04:44:42.672Z,999.81
2019-04-05T04:45:42.678Z,999.83
2019-04-05T04:46:42.689Z,999.86
2019-04-05T04:47:42.662Z,999.89
2019-04-05T04:48:42.626Z,999.93
2019-04-05T04:49:42.626Z,999.92
2019-04-05T04:50:42.606Z,999.95
2019-04-05T04:51:42.638Z,1000.00
2019-04-05T04:52:42.602Z,1000.01
2019-04-05T04:53:42.577Z,1000.01
2019-04-05T04:54:42.562Z,999.99
2019-04-05T04:55:42.553Z,1000.02
2019-04-05T04:56:42.585Z,1000.00
2019-04-05T04:57:42.532Z,1000.00
2019-04-05T04:58:42.525Z,1000.04
2019-04-05T04:59:42.508Z,1000.01
2019-04-05T05:00:42.505Z,1000.08
2019-04-05T05:01:42.487Z,1000.01
2019-04-05T05:02:42.496Z,1000.02
2019-04-05T05:03:42.519Z,1000.08
2019-04-05T05:04:42.471Z,1000.08
2019-04-05T05:05:42.447Z,1000.10
2019-04-05T05:06:42.438Z,1000.14
2019-04-05T05:07:42.455Z,1000.16
2019-04-05T05:08:42.432Z,1000.12
2019-04-05T05:09:42.410Z,1000.13
2019-04-05T05:10:42.419Z,1000.12
2019-04-05T05:11:42.388Z,1000.07
2019-04-05T05:12:42.395Z,1000.07
2019-04-05T05:13:42.428Z,1000.07
2019-04-05T05:14:42.366Z,1000.13
2019-04-05T05:15:42.346Z,1000.13
2019-04-05T05:16:42.344Z,1000.11
2019-04-05T05:17:42.344Z,1000.08
2019-04-05T05:18:42.305Z,1000.13
2019-04-05T05:19:42.297Z,1000.07
2019-04-05T05:20:42.823Z,1000.04
2019-04-05T05:21:42.286Z,1000.05
2019-04-05T05:22:42.299Z,1000.11
2019-04-05T05:23:42.257Z,1000.12
2019-04-05T05:24:42.240Z,1000.14
2019-04-05T05:25:42.230Z,1000.16
2019-04-05T05:26:42.218Z,1000.16
2019-04-05T05:27:42.301Z,1000.18
2019-04-05T05:28:42.202Z,1000.16
2019-04-05T05:29:42.184Z,1000.20
2019-04-05T05:30:42.175Z,1000.17
2019-04-05T05:31:42.167Z,1000.25
2019-04-05T05:32:42.171Z,1000.29
2019-04-05T05:33:42.154Z,1000.25
2019-04-05T05:34:42.178Z,1000.28
2019-04-05T05:35:42.122Z,1000.31
2019-04-05T05:36:42.112Z,1000.33
2019-04-05T05:37:42.128Z,1000.34
2019-04-05T05:38:42.101Z,1000.36
2019-04-05T05:39:42.115Z,1000.35
2019-04-05T05:40:42.078Z,1000.34
2019-04-05T05:41:42.071Z,1000.34
2019-04-05T05:42:42.068Z,1000.40
2019-04-05T05:43:42.062Z,1000.41
2019-04-05T05:44:42.029Z,1000.42
2019-04-05T05:45:42.033Z,1000.45
2019-04-05T05:46:42.011Z,1000.42
2019-04-05T05:47:51.718Z,1000.49
2019-04-05T05:48:43.242Z,1000.46
2019-04-05T05:49:41.977Z,1000.50
2019-04-05T05:50:41.981Z,1000.55
2019-04-05T05:51:41.950Z,1000.52
2019-04-05T05:52:41.942Z,1000.57
2019-04-05T05:53:41.976Z,1000.60
2019-04-05T05:54:41.939Z,1000.56
2019-04-05T05:55:41.924Z,1000.64
2019-04-05T05:56:41.920Z,1000.64
2019-04-05T05:57:41.907Z,1000.64
2019-04-05T05:58:41.926Z,1000.66
2019-04-05T05:59:41.870Z,1000.67
2019-04-05T06:00:41.865Z,1000.69
2019-04-05T06:01:41.901Z,1000.74
2019-04-05T06:02:41.854Z,1000.73
2019-04-05T06:03:41.866Z,1000.71
2019-04-05T06:04:41.817Z,1000.70
2019-04-05T06:05:41.816Z,1000.76
2019-04-05T06:06:41.811Z,1000.75
2019-04-05T06:07:41.798Z,1000.73
2019-04-05T06:08:41.800Z,1000.80
2019-04-05T06:09:41.764Z,1000.83
2019-04-05T06:10:41.757Z,1000.80
2019-04-05T06:11:41.756Z,1000.82
2019-04-05T06:12:41.752Z,1000.76
2019-04-05T06:13:41.760Z,1000.75
2019-04-05T06:14:41.752Z,1000.84
2019-04-05T06:15:41.724Z,1000.79
2019-04-05T06:16:46.652Z,1000.82
2019-04-05T06:17:42.688Z,1000.86
2019-04-05T06:18:41.694Z,1000.92
2019-04-05T06:19:41.676Z,1000.90
2019-04-05T06:20:41.658Z,1000.92
2019-04-05T06:21:41.642Z,1000.93
2019-04-05T06:22:41.630Z,1000.93
2019-04-05T06:23:41.655Z,1000.98
2019-04-05T06:24:41.620Z,1000.96
2019-04-05T06:25:41.636Z,1000.98
2019-04-05T06:26:41.600Z,1000.97
2019-04-05T06:27:41.571Z,1000.97
2019-04-05T06:28:41.933Z,1000.99
2019-04-05T06:29:41.552Z,1001.03
2019-04-05T06:30:41.545Z,1001.02
2019-04-05T06:31:41.535Z,1001.01
2019-04-05T06:32:41.514Z,1001.08
2019-04-05T06:33:41.548Z,1001.05
2019-04-05T06:34:41.494Z,1001.09
2019-04-05T06:35:41.494Z,1001.13
2019-04-05T06:36:41.479Z,1001.13
2019-04-05T06:37:41.472Z,1001.15
2019-04-05T06:38:41.490Z,1001.14
2019-04-05T06:39:41.480Z,1001.14
2019-04-05T06:40:41.468Z,1001.10
2019-04-05T06:41:41.444Z,1001.12
2019-04-05T06:42:41.417Z,1001.13
2019-04-05T06:43:41.416Z,1001.14
2019-04-05T06:44:41.388Z,1001.12
2019-04-05T06:45:41.421Z,1001.08
2019-04-05T06:46:41.360Z,1001.13
2019-04-05T06:47:41.363Z,1001.07
2019-04-05T06:48:41.389Z,1001.08
2019-04-05T06:49:41.358Z,1001.12
2019-04-05T06:50:41.327Z,1001.07
2019-04-05T06:51:41.338Z,1001.04
2019-04-05T06:52:41.307Z,1001.09
2019-04-05T06:53:41.298Z,1001.13
2019-04-05T06:54:41.304Z,1001.05
2019-04-05T06:55:41.282Z,1001.06
2019-04-05T06:56:41.257Z,1001.07
2019-04-05T06:57:41.246Z,1001.13
2019-04-05T06:58:41.248Z,1001.11
2019-04-05T06:59:41.257Z,1001.14
2019-04-05T07:00:41.228Z,1001.15
2019-04-05T07:01:41.226Z,1001.16
2019-04-05T07:02:41.206Z,1001.16
2019-04-05T07:03:41.188Z,1001.22
2019-04-05T07:04:41.202Z,1001.20
2019-04-05T07:05:41.174Z,1001.26
2019-04-05T07:06:41.184Z,1001.24
2019-04-05T07:07:41.156Z,1001.26
2019-04-05T07:08:53.027Z,1001.27
2019-04-05T07:09:42.143Z,1001.31
2019-04-05T07:10:41.118Z,1001.30
2019-04-05T07:11:41.092Z,1001.36
2019-04-05T07:12:41.098Z,1001.36
2019-04-05T07:13:41.077Z,1001.37
2019-04-05T07:14:41.102Z,1001.38
2019-04-05T07:15:41.062Z,1001.41
2019-04-05T07:16:41.063Z,1001.46
2019-04-05T07:17:41.036Z,1001.51
2019-04-05T07:18:41.041Z,1001.57
2019-04-05T07:19:41.048Z,1001.54
2019-04-05T07:20:41.002Z,1001.61
2019-04-05T07:21:40.997Z,1001.62
2019-04-05T07:22:41.016Z,1001.62
2019-04-05T07:23:40.982Z,1001.60
2019-04-05T07:24:40.983Z,1001.64
2019-04-05T07:25:40.945Z,1001.65
2019-04-05T07:26:40.936Z,1001.70
2019-04-05T07:27:40.932Z,1001.68
2019-04-05T07:28:40.913Z,1001.74
2019-04-05T07:29:40.922Z,1001.78
2019-04-05T07:30:40.914Z,1001.82
2019-04-05T07:31:40.892Z,1001.80
2019-04-05T07:32:40.870Z,1001.79
2019-04-05T07:33:40.874Z,1001.80
2019-04-05T07:34:40.880Z,1001.81
2019-04-05T07:35:40.847Z,1001.82
2019-04-05T07:36:40.832Z,1001.88
2019-04-05T07:37:40.832Z,1001.88
2019-04-05T07:38:40.812Z,1001.98
2019-04-05T07:39:40.842Z,1001.97
2019-04-05T07:40:40.787Z,1002.01
2019-04-05T07:41:40.797Z,1001.97
2019-04-05T07:42:40.809Z,1001.96
2019-04-05T07:43:40.758Z,1002.03
2019-04-05T07:44:40.901Z,1002.03
2019-04-05T07:45:40.762Z,1002.00
2019-04-05T07:46:40.724Z,1001.99
2019-04-05T07:47:40.730Z,1002.04
2019-04-05T07:48:45.223Z,1002.12
2019-04-05T07:49:40.698Z,1002.10
2019-04-05T07:50:40.702Z,1002.11
2019-04-05T07:51:40.672Z,1002.08
2019-04-05T07:52:40.664Z,1002.07
2019-04-05T07:53:40.652Z,1002.08
2019-04-05T07:54:40.649Z,1002.11
2019-04-05T07:55:40.656Z,1002.12
2019-04-05T07:56:40.630Z,1002.16
2019-04-05T07:57:40.616Z,1002.14
2019-04-05T07:58:40.605Z,1002.23
2019-04-05T07:59:40.643Z,1002.22
2019-04-05T08:00:40.608Z,1002.28
2019-04-05T08:01:40.572Z,1002.27
2019-04-05T08:02:40.556Z,1002.24
2019-04-05T08:03:40.546Z,1002.27
2019-04-05T08:04:40.543Z,1002.22
2019-04-05T08:05:40.552Z,1002.27
2019-04-05T08:06:40.512Z,1002.28
2019-04-05T08:07:40.510Z,1002.31
2019-04-05T08:08:40.510Z,1002.32
2019-04-05T08:09:40.478Z,1002.37
2019-04-05T08:10:40.497Z,1002.30
2019-04-05T08:11:40.470Z,1002.33
2019-04-05T08:12:40.441Z,1002.32
2019-04-05T08:13:40.450Z,1002.34
2019-04-05T08:14:40.421Z,1002.31
2019-04-05T08:15:40.453Z,1002.36
2019-04-05T08:16:40.411Z,1002.37
2019-04-05T08:17:40.439Z,1002.33
2019-04-05T08:18:40.376Z,1002.38
2019-04-05T08:19:40.381Z,1002.36
2019-04-05T08:20:40.393Z,1002.36
2019-04-05T08:21:40.349Z,1002.35
2019-04-05T08:22:40.345Z,1002.36
2019-04-05T08:23:40.322Z,1002.32
2019-04-05T08:24:40.319Z,1002.36
2019-04-05T08:25:41.252Z,1002.42
2019-04-05T08:26:40.292Z,1002.40
2019-04-05T08:27:40.287Z,1002.35
2019-04-05T08:28:40.283Z,1002.32
2019-04-05T08:29:40.268Z,1002.33
2019-04-05T08:30:40.303Z,1002.31
2019-04-05T08:31:40.288Z,1002.35
2019-04-05T08:32:40.226Z,1002.30
2019-04-05T08:33:40.225Z,1002.33
2019-04-05T08:34:40.229Z,1002.34
2019-04-05T08:35:40.233Z,1002.29
2019-04-05T08:36:40.204Z,1002.29
2019-04-05T08:37:40.176Z,1002.28
2019-04-05T08:38:40.192Z,1002.34
2019-04-05T08:39:40.182Z,1002.29
2019-04-05T08:40:40.221Z,1002.28
2019-04-05T08:41:40.142Z,1002.34
2019-04-05T08:42:40.129Z,1002.33
2019-04-05T08:43:40.131Z,1002.32
2019-04-05T08:44:40.598Z,1002.25
2019-04-05T08:45:40.113Z,1002.26
2019-04-05T08:46:40.114Z,1002.21
2019-04-05T08:47:40.073Z,1002.27
2019-04-05T08:48:40.070Z,1002.33
2019-04-05T08:49:40.049Z,1002.39
2019-04-05T08:50:40.037Z,1002.33
2019-04-05T08:51:40.048Z,1002.35
2019-04-05T08:52:40.041Z,1002.35
2019-04-05T08:53:40.010Z,1002.33
2019-04-05T08:54:40.019Z,1002.34
2019-04-05T08:55:39.985Z,1002.31
2019-04-05T08:56:40.026Z,1002.36
2019-04-05T08:57:39.988Z,1002.40
2019-04-05T08:58:39.952Z,1002.38
2019-04-05T08:59:39.945Z,1002.42
2019-04-05T09:00:39.929Z,1002.37
2019-04-05T09:01:39.977Z,1002.36
2019-04-05T09:02:39.937Z,1002.36
2019-04-05T09:03:39.899Z,1002.40
2019-04-05T09:04:39.888Z,1002.36
2019-04-05T09:05:39.884Z,1002.37
2019-04-05T09:06:39.931Z,1002.40
2019-04-05T09:07:39.857Z,1002.41
2019-04-05T09:08:39.851Z,1002.41
2019-04-05T09:09:39.857Z,1002.42
2019-04-05T09:10:39.838Z,1002.46
2019-04-05T09:11:39.876Z,1002.42
2019-04-05T09:12:39.808Z,1002.46
2019-04-05T09:13:39.797Z,1002.47
2019-04-05T09:14:39.790Z,1002.50
2019-04-05T09:15:39.765Z,1002.49
2019-04-05T09:16:39.795Z,1002.48
2019-04-05T09:17:39.750Z,1002.57
2019-04-05T09:18:39.742Z,1002.52
2019-04-05T09:19:39.737Z,1002.61
2019-04-05T09:20:39.729Z,1002.57
2019-04-05T09:21:40.732Z,1002.64
2019-04-05T09:22:39.714Z,1002.60
2019-04-05T09:23:39.685Z,1002.63
2019-04-05T09:24:39.685Z,1002.63
2019-04-05T09:25:39.664Z,1002.63
2019-04-05T09:26:39.679Z,1002.65
2019-04-05T09:27:39.647Z,1002.69
2019-04-05T09:28:39.637Z,1002.73
2019-04-05T09:29:39.618Z,1002.71
2019-04-05T09:30:39.605Z,1002.74
2019-04-05T09:31:39.636Z,1002.80
2019-04-05T09:32:39.588Z,1002.76
2019-04-05T09:33:39.591Z,1002.73
2019-04-05T09:34:39.560Z,1002.74
2019-04-05T09:35:39.547Z,1002.71
2019-04-05T09:36:39.594Z,1002.74
2019-04-05T09:37:39.539Z,1002.72
2019-04-05T09:38:39.521Z,1002.67
2019-04-05T09:39:39.527Z,1002.70
2019-04-05T09:40:39.522Z,1002.69
2019-04-05T09:41:39.571Z,1002.72
2019-04-05T09:42:39.483Z,1002.78
2019-04-05T09:43:39.480Z,1002.77
2019-04-05T09:44:39.465Z,1002.74
2019-04-05T09:45:39.468Z,1002.73
2019-04-05T09:46:46.937Z,1002.77
2019-04-05T09:47:40.443Z,1002.83
2019-04-05T09:48:39.421Z,1002.84
2019-04-05T09:49:39.418Z,1002.85
2019-04-05T09:50:39.398Z,1002.86
2019-04-05T09:51:39.405Z,1002.85
2019-04-05T09:52:40.176Z,1002.88
2019-04-05T09:53:39.354Z,1002.90
2019-04-05T09:54:39.373Z,1002.92
2019-04-05T09:55:39.347Z,1002.98
2019-04-05T09:56:39.381Z,1003.01
2019-04-05T09:57:39.335Z,1003.01
2019-04-05T09:58:39.305Z,1002.97
2019-04-05T09:59:39.295Z,1002.98
2019-04-05T10:00:39.293Z,1002.98
2019-04-05T10:01:39.298Z,1002.94
2019-04-05T10:02:39.275Z,1002.97
2019-04-05T10:03:39.251Z,1002.94
2019-04-05T10:04:39.241Z,1002.96
2019-04-05T10:05:39.245Z,1002.94
2019-04-05T10:06:39.247Z,1002.95
2019-04-05T10:07:53.891Z,1002.99
2019-04-05T10:08:40.202Z,1003.00
2019-04-05T10:09:39.189Z,1003.05
2019-04-05T10:10:39.188Z,1003.01
2019-04-05T10:11:39.226Z,1003.08
2019-04-05T10:12:39.165Z,1003.04
2019-04-05T10:13:39.157Z,1003.07
2019-04-05T10:14:39.151Z,1003.06
2019-04-05T10:15:39.122Z,1003.08
2019-04-05T10:16:39.139Z,1003.09
2019-04-05T10:17:39.107Z,1003.18
2019-04-05T10:18:39.153Z,1003.19
2019-04-05T10:19:49.234Z,1003.22
2019-04-05T10:20:40.066Z,1003.22
2019-04-05T10:21:39.102Z,1003.21
2019-04-05T10:22:39.096Z,1003.24
2019-04-05T10:23:39.055Z,1003.28
2019-04-05T10:25:40.105Z,1003.26
2019-04-05T10:26:39.009Z,1003.32
2019-04-05T10:27:39.032Z,1003.34
2019-04-05T10:28:38.989Z,1003.30
2019-04-05T10:29:38.979Z,1003.35
2019-04-05T10:30:38.978Z,1003.32
2019-04-05T10:31:39.013Z,1003.33
2019-04-05T10:32:38.982Z,1003.33
2019-04-05T10:33:38.938Z,1003.38
2019-04-05T10:34:38.929Z,1003.36
2019-04-05T10:35:38.919Z,1003.36
2019-04-05T10:36:38.917Z,1003.33
2019-04-05T10:37:38.946Z,1003.28
2019-04-05T10:38:38.888Z,1003.31
2019-04-05T10:39:38.877Z,1003.32
2019-04-05T10:40:38.857Z,1003.33
2019-04-05T10:41:38.854Z,1003.34
2019-04-05T10:42:38.893Z,1003.37
2019-04-05T10:43:38.821Z,1003.33
2019-04-05T10:44:38.820Z,1003.34
2019-04-05T10:45:38.884Z,1003.30
2019-04-05T10:46:38.799Z,1003.32
2019-04-05T10:47:38.798Z,1003.28
2019-04-05T10:48:38.777Z,1003.37
2019-04-05T10:49:38.763Z,1003.35
2019-04-05T10:50:38.754Z,1003.36
2019-04-05T10:51:38.737Z,1003.36
2019-04-05T10:52:38.765Z,1003.36
2019-04-05T10:53:38.734Z,1003.36
2019-04-05T10:54:38.717Z,1003.39
2019-04-05T10:55:38.738Z,1003.47
2019-04-05T10:56:38.678Z,1003.42
2019-04-05T10:57:38.671Z,1003.41
2019-04-05T10:58:38.683Z,1003.47
2019-04-05T10:59:38.673Z,1003.48
2019-04-05T11:00:38.651Z,1003.47
2019-04-05T11:01:38.627Z,1003.55
2019-04-05T11:02:38.625Z,1003.49
2019-04-05T11:03:38.639Z,1003.49
2019-04-05T11:04:38.601Z,1003.50
2019-04-05T11:05:38.609Z,1003.58
2019-04-05T11:06:38.575Z,1003.57
2019-04-05T11:07:38.566Z,1003.57
2019-04-05T11:08:38.585Z,1003.62
2019-04-05T11:09:38.557Z,1003.58
2019-04-05T11:10:38.550Z,1003.60
2019-04-05T11:11:38.557Z,1003.60
2019-04-05T11:12:38.526Z,1003.61
2019-04-05T11:13:38.531Z,1003.66
2019-04-05T11:14:38.500Z,1003.65
2019-04-05T11:15:38.494Z,1003.75
2019-04-05T11:16:38.509Z,1003.68
2019-04-05T11:17:38.465Z,1003.64
2019-04-05T11:18:38.519Z,1003.62
2019-04-05T11:19:38.447Z,1003.64
2019-04-05T11:20:38.422Z,1003.63
2019-04-05T11:21:38.422Z,1003.63
2019-04-05T11:22:38.433Z,1003.67
2019-04-05T11:23:38.425Z,1003.67
2019-04-05T11:24:38.405Z,1003.71
2019-04-05T11:25:38.405Z,1003.71
2019-04-05T11:26:38.383Z,1003.66
2019-04-05T11:27:38.391Z,1003.65
2019-04-05T11:29:39.407Z,1003.64
2019-04-05T11:30:38.320Z,1003.58
2019-04-05T11:31:38.309Z,1003.66
2019-04-05T11:32:38.305Z,1003.59
2019-04-05T11:33:38.333Z,1003.58
2019-04-05T11:34:38.296Z,1003.61
2019-04-05T11:35:38.308Z,1003.52
2019-04-05T11:36:38.252Z,1003.57
2019-04-05T11:37:39.633Z,1003.55
2019-04-05T11:38:38.309Z,1003.61
2019-04-05T11:39:38.239Z,1003.59
2019-04-05T11:40:38.236Z,1003.60
2019-04-05T11:41:38.204Z,1003.63
2019-04-05T11:42:38.206Z,1003.65
2019-04-05T11:43:38.206Z,1003.61
2019-04-05T11:44:38.192Z,1003.62
2019-04-05T11:45:38.169Z,1003.67
2019-04-05T11:46:38.166Z,1003.66
2019-04-05T11:47:38.145Z,1003.65
2019-04-05T11:48:41.099Z,1003.68
2019-04-05T11:49:38.126Z,1003.70
2019-04-05T11:50:38.110Z,1003.66
2019-04-05T11:51:38.108Z,1003.66
2019-04-05T11:52:38.085Z,1003.63
2019-04-05T11:53:38.126Z,1003.64
2019-04-05T11:54:38.059Z,1003.69
2019-04-05T11:55:38.064Z,1003.72
2019-04-05T11:57:41.071Z,1003.67
2019-04-05T11:58:38.127Z,1003.64
2019-04-05T11:59:38.008Z,1003.70
2019-04-05T12:00:38.002Z,1003.74
2019-04-05T12:01:37.992Z,1003.70
2019-04-05T12:02:37.998Z,1003.68
2019-04-05T12:03:38.008Z,1003.70
2019-04-05T12:04:37.984Z,1003.75
2019-04-05T12:05:37.946Z,1003.73
2019-04-05T12:06:37.935Z,1003.74
2019-04-05T12:07:37.920Z,1003.80
2019-04-05T12:08:37.992Z,1003.83
2019-04-05T12:09:37.926Z,1003.85
2019-04-05T12:10:38.060Z,1003.81
2019-04-05T12:11:37.896Z,1003.81
2019-04-05T12:12:37.887Z,1003.82
2019-04-05T12:13:37.940Z,1003.81
2019-04-05T12:14:37.869Z,1003.87
2019-04-05T12:15:37.863Z,1003.83
2019-04-05T12:16:37.822Z,1003.85
2019-04-05T12:17:37.956Z,1003.84